Terminal Aerodrome Forecast
Issued by NWS

Home | Current Version | Previous Version | Text Only | Print | Product List | Glossary On
Versions: 1 2 3 4 5 6 7 8 9 10 11 12 13 14 15 16
000
FTAK31 PAJN 280500
TAFAWG
TAF
PAWG 280520Z 2806/2906 09006KT 6SM -SHRA BR SCT010 BKN035 OVC050
      TEMPO 2806/2809 09008G18KT
     FM280900 VRB03KT 4SM -SHRA BR SCT006 BKN010 OVC025
     FM281200 VRB04KT 6SM -SHRA SCT015 SCT025 OVC050
     FM281500 VRB04KT P6SM -RA OVC050
     FM281800 12006KT P6SM -RA SCT020 OVC040
     FM282100 12008KT P6SM -RA OVC050
     FM290300 12005KT P6SM -RA SCT020 BKN040 OVC060
      AMD LTD TO CLD VIS AND WIND 2806/2815=

USA.gov is the U.S. government's official web portal to all federal, state and local government web resources and services.